AAL1595 KAUS-KDFW
Flight info
| Callsign | AAL1595 |
|---|---|
| Flight time | 0h 39m |
| Altitude | 28000 |
| Route | ELOEL3 FORSS GUTZZ BOOVE7 |
| Aircraft | B738/M-SDE2E3FGHIRWXY/LB1 |
Departure
| Time | 2026-05-04 20:40 |
|---|---|
| Airport | Austin Bergstrom International Airport (KAUS) |
Arrival
| Time | 2026-05-04 21:19 |
|---|---|
| Airport | Dallas Fort Worth International Airport (KDFW) |
| Time | Latitude | Longitude | Altitude | Speed | Heading |
|---|---|---|---|---|---|
| 2026-05-04 20:26 | 30.20173 | -97.66947 | 526 ft | 0 kts | 23° |
| 2026-05-04 20:28 | 30.20172 | -97.66948 | 526 ft | 1 kts | 23° |
| 2026-05-04 20:28 | 30.20157 | -97.66955 | 526 ft | 3 kts | 23° |
| 2026-05-04 20:28 | 30.20138 | -97.66965 | 526 ft | 3 kts | 23° |
| 2026-05-04 20:29 | 30.20120 | -97.66973 | 526 ft | 3 kts | 28° |
| 2026-05-04 20:29 | 30.20105 | -97.66986 | 526 ft | 3 kts | 53° |
| 2026-05-04 20:29 | 30.20095 | -97.67006 | 526 ft | 3 kts | 76° |
| 2026-05-04 20:29 | 30.20093 | -97.67023 | 526 ft | 1 kts | 88° |
| 2026-05-04 20:30 | 30.20093 | -97.67029 | 526 ft | 0 kts | 88° |
| 2026-05-04 20:35 | 30.20093 | -97.67016 | 526 ft | 7 kts | 87° |
| 2026-05-04 20:35 | 30.20093 | -97.66902 | 526 ft | 21 kts | 97° |
| 2026-05-04 20:35 | 30.20061 | -97.66738 | 526 ft | 17 kts | 93° |
| 2026-05-04 20:35 | 30.19964 | -97.66690 | 526 ft | 17 kts | 177° |
| 2026-05-04 20:36 | 30.19908 | -97.66590 | 526 ft | 18 kts | 89° |
| 2026-05-04 20:36 | 30.19912 | -97.66432 | 526 ft | 22 kts | 89° |
| 2026-05-04 20:36 | 30.19915 | -97.66249 | 526 ft | 23 kts | 88° |
| 2026-05-04 20:36 | 30.19919 | -97.66069 | 526 ft | 22 kts | 89° |
| 2026-05-04 20:37 | 30.19942 | -97.65908 | 526 ft | 11 kts | 32° |
| 2026-05-04 20:37 | 30.20016 | -97.65907 | 526 ft | 11 kts | 358° |
| 2026-05-04 20:37 | 30.20105 | -97.65909 | 526 ft | 16 kts | 360° |
| 2026-05-04 20:37 | 30.20236 | -97.65913 | 526 ft | 22 kts | 358° |
| 2026-05-04 20:38 | 30.20368 | -97.65891 | 527 ft | 16 kts | 60° |
| 2026-05-04 20:38 | 30.20357 | -97.65793 | 528 ft | 5 kts | 166° |
| 2026-05-04 20:38 | 30.20335 | -97.65790 | 527 ft | 0 kts | 178° |
| 2026-05-04 20:39 | 30.20234 | -97.65786 | 525 ft | 47 kts | 179° |
| 2026-05-04 20:40 | 30.19646 | -97.65772 | 525 ft | 119 kts | 179° |
| 2026-05-04 20:40 | 30.18643 | -97.65755 | 737 ft | 158 kts | 180° |
| 2026-05-04 20:40 | 30.17570 | -97.65765 | 1723 ft | 154 kts | 181° |
| 2026-05-04 20:40 | 30.16451 | -97.65809 | 2338 ft | 169 kts | 183° |
| 2026-05-04 20:41 | 30.15325 | -97.65877 | 3412 ft | 150 kts | 184° |
| 2026-05-04 20:41 | 30.14306 | -97.65967 | 4240 ft | 150 kts | 185° |
| 2026-05-04 20:41 | 30.13189 | -97.66151 | 4553 ft | 178 kts | 201° |
| 2026-05-04 20:41 | 30.12192 | -97.67159 | 4788 ft | 208 kts | 236° |
| 2026-05-04 20:42 | 30.11786 | -97.68881 | 5036 ft | 234 kts | 261° |
| 2026-05-04 20:42 | 30.11674 | -97.70822 | 5370 ft | 254 kts | 262° |
| 2026-05-04 20:42 | 30.11567 | -97.72900 | 6086 ft | 260 kts | 264° |
| 2026-05-04 20:42 | 30.11387 | -97.74999 | 6837 ft | 265 kts | 264° |
| 2026-05-04 20:43 | 30.11167 | -97.77124 | 7618 ft | 267 kts | 263° |
| 2026-05-04 20:43 | 30.10940 | -97.79281 | 8320 ft | 272 kts | 267° |
| 2026-05-04 20:43 | 30.11302 | -97.81384 | 9175 ft | 271 kts | 299° |
| 2026-05-04 20:43 | 30.12650 | -97.82928 | 9899 ft | 282 kts | 330° |
| 2026-05-04 20:44 | 30.14541 | -97.83597 | 10524 ft | 295 kts | 345° |
| 2026-05-04 20:44 | 30.16677 | -97.83863 | 10693 ft | 322 kts | 353° |
| 2026-05-04 20:44 | 30.19000 | -97.83951 | 10863 ft | 345 kts | 355° |
| 2026-05-04 20:44 | 30.21473 | -97.83995 | 11028 ft | 365 kts | 355° |
| 2026-05-04 20:45 | 30.24024 | -97.84039 | 11334 ft | 377 kts | 355° |
| 2026-05-04 20:45 | 30.26671 | -97.84099 | 11878 ft | 381 kts | 355° |
| 2026-05-04 20:45 | 30.29323 | -97.84173 | 12588 ft | 381 kts | 354° |
| 2026-05-04 20:45 | 30.31991 | -97.84261 | 13232 ft | 385 kts | 354° |
| 2026-05-04 20:46 | 30.34674 | -97.84360 | 13849 ft | 388 kts | 354° |
| 2026-05-04 20:46 | 30.37382 | -97.84464 | 14439 ft | 390 kts | 353° |
| 2026-05-04 20:46 | 30.40097 | -97.84571 | 15001 ft | 391 kts | 353° |
| 2026-05-04 20:46 | 30.42822 | -97.84680 | 15539 ft | 393 kts | 353° |
| 2026-05-04 20:47 | 30.45561 | -97.84790 | 16089 ft | 395 kts | 353° |
| 2026-05-04 20:47 | 30.48321 | -97.84901 | 16603 ft | 397 kts | 352° |
| 2026-05-04 20:47 | 30.51095 | -97.85013 | 17094 ft | 400 kts | 352° |
| 2026-05-04 20:47 | 30.53879 | -97.85124 | 17569 ft | 402 kts | 352° |
| 2026-05-04 20:48 | 30.56679 | -97.85236 | 18046 ft | 404 kts | 352° |
| 2026-05-04 20:48 | 30.59498 | -97.85349 | 18462 ft | 406 kts | 352° |
| 2026-05-04 20:48 | 30.62330 | -97.85463 | 18835 ft | 408 kts | 352° |
| 2026-05-04 20:48 | 30.65173 | -97.85576 | 19230 ft | 410 kts | 352° |
| 2026-05-04 20:49 | 30.68034 | -97.85691 | 19609 ft | 412 kts | 351° |
| 2026-05-04 20:49 | 30.70910 | -97.85807 | 19989 ft | 414 kts | 351° |
| 2026-05-04 20:49 | 30.73737 | -97.86026 | 20345 ft | 411 kts | 346° |
| 2026-05-04 20:49 | 30.76515 | -97.86727 | 20702 ft | 405 kts | 336° |
| 2026-05-04 20:50 | 30.79189 | -97.87767 | 21100 ft | 405 kts | 335° |
| 2026-05-04 20:50 | 30.81868 | -97.88810 | 21473 ft | 407 kts | 335° |
| 2026-05-04 20:50 | 30.84570 | -97.89837 | 21804 ft | 409 kts | 335° |
| 2026-05-04 20:50 | 30.87292 | -97.90854 | 22132 ft | 412 kts | 335° |
| 2026-05-04 20:51 | 30.90027 | -97.91884 | 22466 ft | 412 kts | 334° |
| 2026-05-04 20:51 | 30.92654 | -97.93172 | 22799 ft | 408 kts | 327° |
| 2026-05-04 20:51 | 30.95178 | -97.94676 | 23205 ft | 407 kts | 326° |
| 2026-05-04 20:51 | 30.97688 | -97.96199 | 23673 ft | 404 kts | 326° |
| 2026-05-04 20:52 | 31.00183 | -97.97706 | 23893 ft | 404 kts | 326° |
| 2026-05-04 20:52 | 31.02686 | -97.99205 | 23920 ft | 405 kts | 326° |
| 2026-05-04 20:52 | 31.04355 | -98.00200 | 23925 ft | 408 kts | 326° |
| 2026-05-04 20:52 | 31.06894 | -98.01705 | 23920 ft | 410 kts | 327° |
| 2026-05-04 20:53 | 31.09434 | -98.03205 | 23910 ft | 409 kts | 327° |
| 2026-05-04 20:53 | 31.11967 | -98.04700 | 23911 ft | 406 kts | 327° |
| 2026-05-04 20:53 | 31.15313 | -98.06675 | 23920 ft | 408 kts | 327° |
| 2026-05-04 20:53 | 31.17074 | -98.07586 | 23902 ft | 412 kts | 332° |
| 2026-05-04 20:54 | 31.19844 | -98.08568 | 23916 ft | 421 kts | 340° |
| 2026-05-04 20:54 | 31.22716 | -98.09263 | 23916 ft | 422 kts | 340° |
| 2026-05-04 20:54 | 31.25595 | -98.09959 | 23902 ft | 422 kts | 340° |
| 2026-05-04 20:54 | 31.28471 | -98.10668 | 23921 ft | 422 kts | 340° |
| 2026-05-04 20:55 | 31.31334 | -98.11387 | 23911 ft | 421 kts | 340° |
| 2026-05-04 20:55 | 31.34155 | -98.12102 | 23896 ft | 419 kts | 340° |
| 2026-05-04 20:55 | 31.37004 | -98.12827 | 23888 ft | 418 kts | 340° |
| 2026-05-04 20:55 | 31.39844 | -98.13544 | 23884 ft | 418 kts | 341° |
| 2026-05-04 20:56 | 31.42779 | -98.13802 | 23868 ft | 434 kts | 356° |
| 2026-05-04 20:56 | 31.45799 | -98.13339 | 23891 ft | 437 kts | 359° |
| 2026-05-04 20:56 | 31.48807 | -98.12826 | 23884 ft | 437 kts | 359° |
| 2026-05-04 20:56 | 31.51816 | -98.12330 | 23879 ft | 437 kts | 359° |
| 2026-05-04 20:57 | 31.54830 | -98.11858 | 23901 ft | 436 kts | 358° |
| 2026-05-04 20:57 | 31.57844 | -98.11402 | 23885 ft | 436 kts | 358° |
| 2026-05-04 20:57 | 31.60862 | -98.10951 | 23874 ft | 436 kts | 358° |
| 2026-05-04 20:57 | 31.63871 | -98.10478 | 23864 ft | 439 kts | 1° |
| 2026-05-04 20:58 | 31.66831 | -98.09355 | 23900 ft | 460 kts | 18° |
| 2026-05-04 20:58 | 31.69590 | -98.07479 | 23916 ft | 465 kts | 22° |
| 2026-05-04 20:58 | 31.72359 | -98.05506 | 23908 ft | 466 kts | 22° |
| 2026-05-04 20:58 | 31.75130 | -98.03540 | 23903 ft | 466 kts | 22° |
| 2026-05-04 20:59 | 31.77916 | -98.01594 | 23891 ft | 465 kts | 21° |
| 2026-05-04 20:59 | 31.80708 | -97.99669 | 23887 ft | 465 kts | 21° |
| 2026-05-04 20:59 | 31.83513 | -97.97746 | 23905 ft | 465 kts | 21° |
| 2026-05-04 20:59 | 31.86308 | -97.95831 | 23886 ft | 465 kts | 21° |
| 2026-05-04 21:00 | 31.89104 | -97.93941 | 23878 ft | 463 kts | 20° |
| 2026-05-04 21:00 | 31.91909 | -97.92089 | 23868 ft | 461 kts | 19° |
| 2026-05-04 21:00 | 31.94714 | -97.90251 | 23842 ft | 460 kts | 19° |
| 2026-05-04 21:00 | 31.97506 | -97.88422 | 23862 ft | 459 kts | 19° |
| 2026-05-04 21:01 | 32.00257 | -97.86608 | 23838 ft | 446 kts | 19° |
| 2026-05-04 21:01 | 32.02909 | -97.84846 | 23841 ft | 429 kts | 19° |
| 2026-05-04 21:01 | 32.05464 | -97.83154 | 23852 ft | 425 kts | 19° |
| 2026-05-04 21:01 | 32.08036 | -97.81453 | 23833 ft | 411 kts | 19° |
| 2026-05-04 21:02 | 32.10452 | -97.79851 | 23839 ft | 396 kts | 18° |
| 2026-05-04 21:02 | 32.12808 | -97.78288 | 23848 ft | 382 kts | 18° |
| 2026-05-04 21:02 | 32.15085 | -97.76775 | 23837 ft | 368 kts | 17° |
| 2026-05-04 21:02 | 32.17274 | -97.75322 | 23826 ft | 355 kts | 17° |
| 2026-05-04 21:03 | 32.19385 | -97.73911 | 23829 ft | 342 kts | 17° |
| 2026-05-04 21:03 | 32.21413 | -97.72551 | 23830 ft | 328 kts | 16° |
| 2026-05-04 21:03 | 32.23340 | -97.71260 | 23817 ft | 308 kts | 14° |
| 2026-05-04 21:03 | 32.25183 | -97.70129 | 23743 ft | 293 kts | 12° |
| 2026-05-04 21:04 | 32.27003 | -97.69073 | 23432 ft | 291 kts | 11° |
| 2026-05-04 21:04 | 32.28826 | -97.68028 | 23013 ft | 292 kts | 12° |
| 2026-05-04 21:04 | 32.30663 | -97.66965 | 22585 ft | 295 kts | 12° |
| 2026-05-04 21:04 | 32.32514 | -97.65884 | 22135 ft | 299 kts | 13° |
| 2026-05-04 21:05 | 32.34399 | -97.64776 | 21638 ft | 305 kts | 14° |
| 2026-05-04 21:05 | 32.36347 | -97.63635 | 20734 ft | 324 kts | 15° |
| 2026-05-04 21:05 | 32.38413 | -97.62355 | 19530 ft | 359 kts | 26° |
| 2026-05-04 21:05 | 32.40380 | -97.60296 | 18533 ft | 392 kts | 39° |
| 2026-05-04 21:06 | 32.42299 | -97.57974 | 17976 ft | 394 kts | 39° |
| 2026-05-04 21:06 | 32.44224 | -97.55699 | 17614 ft | 389 kts | 38° |
| 2026-05-04 21:06 | 32.46148 | -97.53480 | 17246 ft | 384 kts | 38° |
| 2026-05-04 21:06 | 32.48068 | -97.51290 | 16801 ft | 381 kts | 38° |
| 2026-05-04 21:07 | 32.49982 | -97.49112 | 16339 ft | 380 kts | 38° |
| 2026-05-04 21:07 | 32.51887 | -97.46943 | 15958 ft | 378 kts | 38° |
| 2026-05-04 21:07 | 32.53772 | -97.44791 | 15545 ft | 376 kts | 38° |
| 2026-05-04 21:07 | 32.55647 | -97.42646 | 15166 ft | 373 kts | 38° |
| 2026-05-04 21:08 | 32.57506 | -97.40518 | 14832 ft | 370 kts | 38° |
| 2026-05-04 21:08 | 32.59351 | -97.38405 | 14444 ft | 368 kts | 39° |
| 2026-05-04 21:08 | 32.61163 | -97.36327 | 14080 ft | 365 kts | 39° |
| 2026-05-04 21:08 | 32.62984 | -97.34240 | 13706 ft | 363 kts | 39° |
| 2026-05-04 21:09 | 32.64800 | -97.32157 | 13295 ft | 362 kts | 39° |
| 2026-05-04 21:09 | 32.66599 | -97.30092 | 12906 ft | 359 kts | 39° |
| 2026-05-04 21:09 | 32.68377 | -97.28048 | 12731 ft | 351 kts | 39° |
| 2026-05-04 21:09 | 32.70104 | -97.26061 | 12541 ft | 343 kts | 39° |
| 2026-05-04 21:10 | 32.71813 | -97.24098 | 12220 ft | 340 kts | 39° |
| 2026-05-04 21:10 | 32.73503 | -97.22156 | 11893 ft | 338 kts | 40° |
| 2026-05-04 21:10 | 32.75187 | -97.20217 | 11568 ft | 335 kts | 40° |
| 2026-05-04 21:10 | 32.76868 | -97.18309 | 11254 ft | 331 kts | 36° |
| 2026-05-04 21:11 | 32.78831 | -97.17010 | 10932 ft | 318 kts | 11° |
| 2026-05-04 21:11 | 32.80972 | -97.16632 | 10615 ft | 307 kts | 356° |
| 2026-05-04 21:11 | 32.83092 | -97.16603 | 10445 ft | 300 kts | 354° |
| 2026-05-04 21:11 | 32.85131 | -97.16606 | 10339 ft | 288 kts | 354° |
| 2026-05-04 21:12 | 32.87119 | -97.16608 | 10046 ft | 284 kts | 354° |
| 2026-05-04 21:12 | 32.89096 | -97.16606 | 9642 ft | 284 kts | 354° |
| 2026-05-04 21:12 | 32.91066 | -97.16596 | 9173 ft | 283 kts | 355° |
| 2026-05-04 21:12 | 32.93015 | -97.16580 | 8688 ft | 284 kts | 355° |
| 2026-05-04 21:13 | 32.94985 | -97.16560 | 8239 ft | 282 kts | 354° |
| 2026-05-04 21:13 | 32.96947 | -97.16538 | 7808 ft | 281 kts | 355° |
| 2026-05-04 21:13 | 32.98902 | -97.16516 | 7327 ft | 281 kts | 354° |
| 2026-05-04 21:13 | 33.00847 | -97.16493 | 6885 ft | 280 kts | 355° |
| 2026-05-04 21:14 | 33.02799 | -97.16471 | 6438 ft | 280 kts | 354° |
| 2026-05-04 21:14 | 33.04748 | -97.16451 | 5990 ft | 280 kts | 355° |
| 2026-05-04 21:14 | 33.06688 | -97.16332 | 5535 ft | 284 kts | 8° |
| 2026-05-04 21:14 | 33.08444 | -97.15184 | 5039 ft | 295 kts | 45° |
| 2026-05-04 21:15 | 33.09528 | -97.13133 | 4542 ft | 296 kts | 73° |
| 2026-05-04 21:15 | 33.09786 | -97.10757 | 4195 ft | 283 kts | 101° |
| 2026-05-04 21:15 | 33.09240 | -97.08608 | 3952 ft | 262 kts | 126° |
| 2026-05-04 21:15 | 33.08119 | -97.07000 | 3665 ft | 246 kts | 146° |
| 2026-05-04 21:16 | 33.06696 | -97.05974 | 3321 ft | 234 kts | 163° |
| 2026-05-04 21:16 | 33.05188 | -97.05356 | 3085 ft | 228 kts | 165° |
| 2026-05-04 21:16 | 33.03633 | -97.05008 | 2970 ft | 229 kts | 179° |
| 2026-05-04 21:16 | 33.02043 | -97.05030 | 2690 ft | 223 kts | 181° |
| 2026-05-04 21:17 | 33.00565 | -97.05030 | 2401 ft | 201 kts | 180° |
| 2026-05-04 21:17 | 32.99237 | -97.05033 | 2156 ft | 181 kts | 180° |
| 2026-05-04 21:17 | 32.98032 | -97.05039 | 1915 ft | 165 kts | 180° |
| 2026-05-04 21:17 | 32.96960 | -97.05043 | 1716 ft | 146 kts | 181° |
| 2026-05-04 21:18 | 32.96011 | -97.05048 | 1536 ft | 128 kts | 181° |
| 2026-05-04 21:18 | 32.95090 | -97.05054 | 1366 ft | 137 kts | 179° |
| 2026-05-04 21:18 | 32.94117 | -97.05042 | 1182 ft | 144 kts | 181° |
| 2026-05-04 21:18 | 32.93119 | -97.05066 | 970 ft | 141 kts | 180° |
| 2026-05-04 21:19 | 32.92180 | -97.05071 | 792 ft | 134 kts | 178° |
| 2026-05-04 21:19 | 32.91262 | -97.05073 | 627 ft | 126 kts | 178° |
| 2026-05-04 21:19 | 32.90478 | -97.05075 | 599 ft | 101 kts | 178° |
| 2026-05-04 21:19 | 32.89908 | -97.05080 | 601 ft | 45 kts | 180° |
| 2026-05-04 21:20 | 32.89755 | -97.05068 | 602 ft | 2 kts | 127° |
| 2026-05-04 21:20 | 32.89755 | -97.05042 | 602 ft | 7 kts | 84° |
| 2026-05-04 21:20 | 32.89757 | -97.04939 | 601 ft | 17 kts | 89° |
| 2026-05-04 21:20 | 32.89769 | -97.04792 | 597 ft | 19 kts | 58° |
| 2026-05-04 21:21 | 32.89888 | -97.04764 | 597 ft | 18 kts | 359° |
| 2026-05-04 21:21 | 32.90011 | -97.04764 | 598 ft | 17 kts | 0° |
| 2026-05-04 21:21 | 32.90131 | -97.04763 | 596 ft | 17 kts | 0° |
| 2026-05-04 21:21 | 32.90245 | -97.04762 | 596 ft | 16 kts | 0° |
| 2026-05-04 21:22 | 32.90355 | -97.04761 | 596 ft | 16 kts | 360° |
| 2026-05-04 21:22 | 32.90460 | -97.04761 | 596 ft | 15 kts | 0° |
| 2026-05-04 21:22 | 32.90562 | -97.04761 | 596 ft | 14 kts | 0° |
| 2026-05-04 21:22 | 32.90670 | -97.04760 | 596 ft | 17 kts | 360° |
| 2026-05-04 21:23 | 32.90790 | -97.04760 | 597 ft | 17 kts | 0° |
| 2026-05-04 21:23 | 32.90898 | -97.04730 | 600 ft | 16 kts | 57° |
| 2026-05-04 21:23 | 32.90907 | -97.04588 | 597 ft | 19 kts | 90° |
| 2026-05-04 21:23 | 32.90907 | -97.04385 | 603 ft | 28 kts | 90° |
| 2026-05-04 21:24 | 32.90907 | -97.04149 | 608 ft | 28 kts | 90° |
| 2026-05-04 21:24 | 32.90907 | -97.03921 | 608 ft | 27 kts | 91° |
| 2026-05-04 21:24 | 32.90903 | -97.03697 | 593 ft | 29 kts | 90° |
| 2026-05-04 21:24 | 32.90904 | -97.03450 | 585 ft | 21 kts | 90° |
| 2026-05-04 21:25 | 32.90853 | -97.03317 | 585 ft | 20 kts | 166° |
| 2026-05-04 21:25 | 32.90717 | -97.03310 | 584 ft | 19 kts | 180° |
| 2026-05-04 21:25 | 32.90585 | -97.03311 | 584 ft | 19 kts | 180° |
| 2026-05-04 21:25 | 32.90457 | -97.03312 | 584 ft | 18 kts | 180° |
| 2026-05-04 21:26 | 32.90334 | -97.03312 | 584 ft | 17 kts | 180° |
| 2026-05-04 21:26 | 32.90214 | -97.03313 | 584 ft | 17 kts | 180° |
| 2026-05-04 21:26 | 32.90121 | -97.03350 | 585 ft | 14 kts | 238° |
| 2026-05-04 21:26 | 32.90110 | -97.03458 | 586 ft | 13 kts | 272° |
| 2026-05-04 21:27 | 32.90111 | -97.03564 | 586 ft | 13 kts | 270° |
| 2026-05-04 21:27 | 32.90110 | -97.03668 | 586 ft | 12 kts | 271° |
| 2026-05-04 21:27 | 32.90112 | -97.03770 | 586 ft | 12 kts | 271° |
| 2026-05-04 21:27 | 32.90120 | -97.03854 | 586 ft | 5 kts | 312° |
| 2026-05-04 21:28 | 32.90150 | -97.03873 | 586 ft | 4 kts | 340° |
| 2026-05-04 21:28 | 32.90166 | -97.03880 | 586 ft | 1 kts | 342° |
| 2026-05-04 21:28 | 32.90173 | -97.03882 | 586 ft | 1 kts | 342° |
| 2026-05-04 21:28 | 32.90175 | -97.03883 | 586 ft | 0 kts | 342° |